Rarotonga, Cook Islands

2:15 AM CKT on August 30, 2015 (GMT -1000)
At The Dive Base Inave | | Change Station
CLOSE
Current Station
Personal Weather Station
Location: Arorangi, RAROTONGA
Elevation: 97 ft
Nearby Weather Stations

Elev 97 ft 21.22 °S, 159.82 °W | Updated 2 minutes ago

Scattered Clouds
Scattered Clouds
69.9 °F
Feels Like 69.9 °F
N
4.0
Wind Variable Wind from SW
Gusts 14.0 mph

Today
High -- | Low -- °F
--% Chance of Precip.
Yesterday
High -- | Low -- °F
Precip. -- in
6:50 AM 6:29 PM
Full, 99% visible
Pressure 29.92 in
Visibility 6.2 miles
Clouds Scattered Clouds 2500 ft
Dew Point 58 °F
Humidity 65%
Rainfall Not available.
Snow Depth Not available.
UV 0 out of 12
Pollen Not available.
Air Quality Not available.
Flu Activity Not available.
METAR NCRG 301200Z 25016KT 9999 SCT025 21/14 Q1013
Pressure 29.92 in
Visibility 6.2 miles
Clouds Scattered Clouds 2500 ft
Dew Point 58 °F
Humidity 65%
Rainfall Not available.
Snow Depth Not available.
UV 0 out of 12
Pollen Not available.
Air Quality Not available.
Flu Activity Not available.
METAR NCRG 301200Z 25016KT 9999 SCT025 21/14 Q1013

10-Day Weather Forecast

×

Almanac

Astronomy

Aug. 30, 2015 Rise Set
Actual Time
Civil Twilight
Nautical Twilight
Astronomical Twilight
Moon
Length of Visible Light
Length of Day
Tomorrow will be .
, % of the Moon is Illuminated

Today's Extremes

Country Highs Country Lows

Community

WunderPhotos

Upload Photos

1,850,936 photos uploaded!

WunderBlogs® & News

Nearby

Air Quality

  Air Quality AQ Index Pollutant
Not available.

Snow Depth

Station Depth Elevation

Earthquake Activity

City Distance Mag. Time & Date
Minimum magnitude displayed is 2.5.

Coastal Water Temperatures

Place Temperature

Stations

Nearby Weather Stations

Station Location Temp. Windchill Dew Point Humidity Wind Precip. Elev Updated Type